Time;durP1;ratioP1;P1;durP2;ratioP2;P2;SDS_P1;SDS_P2;PMS_P1;PMS_P2;Temp;Humidity;BMP_temperature;BMP_pressure;BME280_temperature;BME280_humidity;BME280_pressure;Samples;Min_cycle;Max_cycle;Signal;HPM_P1;HPM_P2
2022/12/11 07:52:21;;;;;;;16.07;9.97;;;-3.90;99.90;;;;;;5137479;27;20576;-79
2022/12/11 07:56:19;;;;;;;14.67;9.77;;;-4.00;99.90;;;;;;5138733;27;20629;-80
2022/12/11 07:58:45;;;;;;;17.90;9.93;;;-3.90;99.90;;;;;;5133482;28;20509;-79
2022/12/11 08:01:14;;;;;;;15.67;9.23;;;-3.90;99.90;;;;;;5133329;28;20173;-80
2022/12/11 08:03:41;;;;;;;15.33;8.87;;;-3.80;99.90;;;;;;5132022;28;20422;-80
2022/12/11 08:06:07;;;;;;;17.10;8.43;;;;;;;;;;5137417;28;20434;-80
2022/12/11 08:08:33;;;;;;;15.03;8.47;;;;;;;;;;5143138;28;20412;-81
2022/12/11 08:11:07;;;;;;;14.20;8.23;;;-3.50;99.90;;;;;;5142321;28;20910;-81
2022/12/11 08:13:33;;;;;;;16.70;9.90;;;-3.00;99.90;;;;;;5141127;28;20440;-81
2022/12/11 08:16:06;;;;;;;18.57;11.20;;;-3.00;99.90;;;;;;5141295;28;20873;-81
2022/12/11 08:18:33;;;;;;;17.47;11.60;;;-2.30;99.90;;;;;;5141687;28;20167;-81
2022/12/11 08:21:10;;;;;;;15.93;10.53;;;-1.70;99.90;;;;;;5148878;27;20404;-81
2022/12/11 08:23:36;;;;;;;17.47;11.57;;;-1.20;99.90;;;;;;5139883;28;20424;-81
2022/12/11 08:26:07;;;;;;;16.43;12.27;;;-0.80;99.90;;;;;;5139785;28;20443;-81
2022/12/11 08:28:33;;;;;;;12.43;8.90;;;-0.60;99.90;;;;;;5141630;27;20156;-81
2022/12/11 08:30:58;;;;;;;23.83;15.87;;;-0.40;99.90;;;;;;5141743;28;20944;-82
2022/12/11 08:33:25;;;;;;;16.30;11.67;;;-0.30;99.90;;;;;;5139538;28;20217;-81
2022/12/11 08:35:50;;;;;;;16.40;11.53;;;-0.20;99.90;;;;;;5141008;27;20228;-82
2022/12/11 08:38:16;;;;;;;19.40;12.47;;;-0.10;99.90;;;;;;5140674;27;20917;-82
2022/12/11 08:40:42;;;;;;;17.27;11.53;;;0.10;99.90;;;;;;5139257;28;20198;-83
2022/12/11 08:43:08;;;;;;;14.17;10.00;;;0.50;99.90;;;;;;5142271;27;20179;-82
2022/12/11 08:45:33;;;;;;;13.47;9.73;;;0.50;99.90;;;;;;5145488;27;20198;-81
2022/12/11 08:47:59;;;;;;;14.40;10.27;;;0.50;99.90;;;;;;5150576;28;20179;-81
2022/12/11 08:50:25;;;;;;;13.83;10.07;;;0.70;99.90;;;;;;5137492;28;20218;-82
2022/12/11 08:52:52;;;;;;;12.43;9.60;;;0.70;99.90;;;;;;5136426;28;20171;-82
2022/12/11 08:55:20;;;;;;;14.13;10.03;;;0.80;99.90;;;;;;5136905;28;20227;-81
2022/12/11 08:57:46;;;;;;;12.33;9.33;;;0.80;99.90;;;;;;5136297;28;20417;-81
2022/12/11 09:00:14;;;;;;;13.30;9.97;;;0.70;99.90;;;;;;5137501;28;20431;-82
2022/12/11 09:02:40;;;;;;;10.70;9.10;;;1.10;99.90;;;;;;5137266;28;20175;-81
2022/12/11 09:05:08;;;;;;;9.67;8.17;;;1.10;99.90;;;;;;5139370;27;20262;-81
2022/12/11 09:07:34;;;;;;;11.77;8.13;;;0.70;99.90;;;;;;5126198;27;20199;-82
2022/12/11 09:10:00;;;;;;;10.27;8.13;;;0.60;99.90;;;;;;5125459;28;20617;-82
2022/12/11 09:12:27;;;;;;;9.43;7.43;;;0.60;99.90;;;;;;5123311;28;20175;-81
2022/12/11 09:14:53;;;;;;;12.60;9.17;;;0.80;99.90;;;;;;5123725;28;20219;-82
2022/12/11 09:17:19;;;;;;;10.73;8.33;;;1.00;99.90;;;;;;5123485;28;20170;-83
2022/12/11 09:19:45;;;;;;;9.73;8.60;;;1.20;99.90;;;;;;5124450;28;20506;-83
2022/12/11 09:22:11;;;;;;;9.67;7.70;;;1.60;99.90;;;;;;5123941;28;20521;-83
2022/12/11 09:24:38;;;;;;;8.63;7.17;;;1.80;99.90;;;;;;5124287;28;20544;-83
2022/12/11 09:27:04;;;;;;;9.77;8.47;;;1.90;99.90;;;;;;5124603;28;20209;-83
2022/12/11 09:29:30;;;;;;;8.43;6.80;;;1.80;99.90;;;;;;5124575;28;20255;-83
2022/12/11 09:31:56;;;;;;;7.47;6.27;;;1.90;99.90;;;;;;5126718;28;20181;-83
2022/12/11 09:34:23;;;;;;;9.80;6.50;;;2.10;99.90;;;;;;5126788;28;20730;-82
2022/12/11 09:36:48;;;;;;;8.30;6.60;;;1.80;99.90;;;;;;5127664;28;20199;-83
2022/12/11 09:39:15;;;;;;;7.60;6.57;;;1.70;99.90;;;;;;5127492;28;20176;-83
2022/12/11 09:42:06;;;;;;;9.23;7.60;;;1.70;99.90;;;;;;5129899;27;20168;-83
2022/12/11 09:44:53;;;;;;;7.03;5.97;;;2.00;99.90;;;;;;5128091;28;20644;-82
2022/12/11 09:47:29;;;;;;;7.20;6.30;;;1.80;99.90;;;;;;5124251;28;20197;-82
2022/12/11 09:50:19;;;;;;;13.60;9.90;;;2.00;99.90;;;;;;5123817;28;20192;-82
2022/12/11 09:52:51;;;;;;;15.37;13.60;;;1.80;99.90;;;;;;5126266;28;20188;-82
2022/12/11 09:55:22;;;;;;;8.37;7.43;;;1.70;99.90;;;;;;5124782;28;20692;-81
2022/12/11 09:58:10;;;;;;;6.80;5.67;;;1.50;99.90;;;;;;5123030;28;20191;-82
2022/12/11 10:01:16;;;;;;;7.47;6.27;;;1.70;99.90;;;;;;5123418;28;20193;-81
2022/12/11 10:03:55;;;;;;;9.00;6.50;;;1.70;99.90;;;;;;5082414;28;20746;-82
2022/12/11 10:06:47;;;;;;;8.07;6.67;;;1.40;99.90;;;;;;5119707;28;20207;-82
2022/12/11 10:09:29;;;;;;;8.30;6.83;;;1.40;99.90;;;;;;5119907;28;20194;-82
2022/12/11 10:12:03;;;;;;;7.00;6.00;;;1.90;99.90;;;;;;5124892;27;20485;-81
2022/12/11 10:14:40;;;;;;;8.93;6.27;;;2.00;99.90;;;;;;5123910;28;20186;-82
2022/12/11 10:17:31;;;;;;;6.30;5.33;;;2.50;99.90;;;;;;5123839;28;20254;-82
2022/12/11 10:20:23;;;;;;;6.53;4.20;;;2.40;99.90;;;;;;5122953;28;20183;-82
2022/12/11 10:22:51;;;;;;;7.83;5.27;;;2.50;99.90;;;;;;5114658;28;20274;-83
2022/12/11 10:25:25;;;;;;;27.13;6.73;;;2.70;99.90;;;;;;5122141;28;20661;-84
2022/12/11 10:27:51;;;;;;;40.73;7.63;;;3.10;99.90;;;;;;5120031;28;20166;-84
2022/12/11 10:30:23;;;;;;;7.20;5.93;;;3.20;99.90;;;;;;5120763;28;20180;-84
2022/12/11 10:33:10;;;;;;;7.00;6.20;;;2.90;99.90;;;;;;5120524;28;20179;-84
2022/12/11 10:35:47;;;;;;;6.47;5.07;;;2.90;99.90;;;;;;5125675;28;20199;-83
2022/12/11 10:38:41;;;;;;;18.50;9.23;;;3.10;99.90;;;;;;5119821;28;20182;-84
2022/12/11 10:41:19;;;;;;;6.03;5.27;;;3.30;99.90;;;;;;5124324;28;20255;-84
2022/12/11 10:43:48;;;;;;;9.97;6.07;;;3.60;99.90;;;;;;5123595;28;20228;-84
2022/12/11 10:46:32;;;;;;;4.77;4.27;;;3.60;99.90;;;;;;5120621;28;20195;-84
2022/12/11 10:49:00;;;;;;;16.67;8.43;;;3.10;99.90;;;;;;5120077;28;20171;-82
2022/12/11 10:51:29;;;;;;;40.03;14.23;;;3.20;99.90;;;;;;5122555;28;20184;-83
2022/12/11 10:54:15;;;;;;;21.83;8.37;;;3.70;99.90;;;;;;5118874;28;20183;-85
2022/12/11 10:56:45;;;;;;;11.07;5.87;;;4.00;99.90;;;;;;5120051;28;20199;-82
2022/12/11 10:59:26;;;;;;;8.40;5.73;;;4.10;99.90;;;;;;5119227;28;20176;-81
2022/12/11 11:01:53;;;;;;;19.97;8.27;;;4.50;99.90;;;;;;5119151;28;20183;-84
2022/12/11 11:04:25;;;;;;;7.73;5.37;;;4.70;99.90;;;;;;5118564;28;20183;-81
2022/12/11 11:07:11;;;;;;;10.67;5.83;;;4.60;99.90;;;;;;5118013;28;20192;-82
2022/12/11 11:09:38;;;;;;;8.07;5.27;;;4.40;99.90;;;;;;5117171;28;20177;-83
2022/12/11 11:12:16;;;;;;;5.17;4.60;;;3.70;99.90;;;;;;5116981;28;20176;-82
2022/12/11 11:14:41;;;;;;;8.87;5.50;;;2.90;99.90;;;;;;5119647;28;20187;-82
2022/12/11 11:17:15;;;;;;;6.77;5.20;;;2.40;99.90;;;;;;5119635;28;20168;-81
2022/12/11 11:19:44;;;;;;;10.30;6.50;;;2.40;99.90;;;;;;5118748;28;20160;-81
2022/12/11 11:22:17;;;;;;;8.27;5.63;;;2.30;99.90;;;;;;5119422;28;20178;-81
2022/12/11 11:24:57;;;;;;;8.33;6.53;;;3.00;99.90;;;;;;5117618;28;20250;-81
2022/12/11 11:27:42;;;;;;;7.97;6.60;;;3.60;99.90;;;;;;5117479;28;20204;-82
2022/12/11 11:30:25;;;;;;;7.83;7.00;;;4.40;99.90;;;;;;5120228;28;20194;-81
2022/12/11 11:32:55;;;;;;;15.63;10.70;;;3.90;99.90;;;;;;5122129;28;20175;-81
2022/12/11 11:35:24;;;;;;;10.70;9.10;;;3.10;99.90;;;;;;5119545;28;20219;-82
2022/12/11 11:38:21;;;;;;;9.10;7.63;;;2.30;99.90;;;;;;5121680;28;20320;-81
2022/12/11 11:41:08;;;;;;;8.63;7.27;;;1.00;99.90;;;;;;5113770;28;20552;-81
2022/12/11 11:43:53;;;;;;;10.83;7.83;;;0.50;99.90;;;;;;5119049;28;20220;-82
2022/12/11 11:46:22;;;;;;;10.93;8.47;;;0.20;99.90;;;;;;5121808;28;20191;-80
2022/12/11 11:49:06;;;;;;;9.90;8.17;;;-0.30;99.90;;;;;;5122463;28;20182;-80
2022/12/11 11:51:55;;;;;;;10.10;7.60;;;-0.70;99.90;;;;;;5120531;28;20197;-80
2022/12/11 11:54:33;;;;;;;10.53;8.30;;;-1.00;99.90;;;;;;5121833;28;20729;-80
2022/12/11 11:57:24;;;;;;;10.87;9.40;;;-1.30;99.90;;;;;;5122985;28;20192;-80
2022/12/11 11:59:58;;;;;;;11.33;8.93;;;-1.30;99.90;;;;;;5081117;28;20188;-81
2022/12/11 12:02:24;;;;;;;12.13;9.40;;;-1.50;99.90;;;;;;5121992;28;20183;-82
2022/12/11 12:04:50;;;;;;;14.43;9.53;;;-1.40;99.90;;;;;;5124292;28;20172;-81
2022/12/11 12:07:39;;;;;;;14.57;10.03;;;-1.30;99.90;;;;;;5122157;28;20247;-81
2022/12/11 12:10:35;;;;;;;13.20;10.03;;;-1.40;99.90;;;;;;5128421;28;20175;-81
2022/12/11 12:13:12;;;;;;;11.87;8.73;;;-1.30;99.90;;;;;;5121408;28;21010;-80
2022/12/11 12:15:53;;;;;;;14.60;9.80;;;-1.20;99.90;;;;;;5123694;28;20497;-80
2022/12/11 12:18:27;;;;;;;17.13;10.00;;;-1.20;99.90;;;;;;5125343;28;20922;-81
2022/12/11 12:21:13;;;;;;;12.27;8.53;;;-1.00;99.90;;;;;;5126880;28;20242;-80
2022/12/11 12:24:05;;;;;;;11.77;8.80;;;-0.60;99.90;;;;;;5126814;28;20444;-79
2022/12/11 12:26:34;;;;;;;15.63;10.00;;;-0.20;99.90;;;;;;5133436;28;20210;-79
2022/12/11 12:29:21;;;;;;;10.30;8.20;;;0.00;99.90;;;;;;5132136;28;20417;-80
2022/12/11 12:32:24;;;;;;;13.47;10.00;;;-0.10;99.90;;;;;;5131356;28;20421;-80
2022/12/11 12:35:15;;;;;;;14.37;10.47;;;-0.50;99.90;;;;;;5133140;28;20456;-80
2022/12/11 12:37:50;;;;;;;12.97;8.53;;;-0.60;99.90;;;;;;5134830;28;20403;-79
2022/12/11 12:41:01;;;;;;;11.93;8.77;;;-0.70;99.90;;;;;;5134250;28;20392;-80
2022/12/11 12:43:52;;;;;;;15.10;10.13;;;-0.90;99.90;;;;;;5136773;28;20393;-79
2022/12/11 12:46:52;;;;;;;17.53;8.80;;;-0.90;99.90;;;;;;5115096;28;20440;-80
2022/12/11 12:49:47;;;;;;;16.83;8.87;;;-0.90;99.90;;;;;;5123885;28;20405;-81
2022/12/11 12:52:18;;;;;;;13.53;9.67;;;-0.90;99.90;;;;;;5120811;28;20405;-84
2022/12/11 12:55:12;;;;;;;15.13;10.00;;;-1.00;99.90;;;;;;5122198;28;20460;-80
2022/12/11 12:57:35;;;;;;;13.43;9.50;;;-1.00;99.90;;;;;;5121590;28;20428;-80
2022/12/11 13:00:01;;;;;;;17.60;9.60;;;-1.10;99.90;;;;;;5120786;28;20416;-80
2022/12/11 13:02:27;;;;;;;11.30;8.57;;;-1.20;99.90;;;;;;5119100;28;20500;-79
2022/12/11 13:04:59;;;;;;;14.30;9.57;;;-1.10;99.90;;;;;;5119553;28;20175;-80
2022/12/11 13:07:30;;;;;;;15.03;9.97;;;-1.10;99.90;;;;;;5118979;28;20203;-80
2022/12/11 13:10:21;;;;;;;13.00;9.20;;;-1.20;99.90;;;;;;5120377;28;20445;-80
2022/12/11 13:12:46;;;;;;;13.23;9.07;;;-1.10;99.90;;;;;;5121276;27;20422;-81
2022/12/11 13:15:42;;;;;;;14.57;10.00;;;-1.20;99.90;;;;;;5120048;28;20472;-80
2022/12/11 13:18:35;;;;;;;15.20;9.73;;;-1.20;99.90;;;;;;5120053;28;20183;-80
2022/12/11 13:21:03;;;;;;;13.47;9.30;;;-1.20;99.90;;;;;;5114682;28;20428;-80
2022/12/11 13:23:31;;;;;;;14.50;9.20;;;-1.20;99.90;;;;;;5121238;28;20416;-80
2022/12/11 13:26:08;;;;;;;15.93;10.87;;;-1.10;99.90;;;;;;5122500;27;20437;-81
2022/12/11 13:28:54;;;;;;;10.37;8.07;;;-1.10;99.90;;;;;;5121236;28;20412;-81
2022/12/11 13:31:19;;;;;;;11.53;8.20;;;-1.00;99.90;;;;;;5121562;28;20420;-79
2022/12/11 13:33:48;;;;;;;11.63;8.50;;;-1.10;99.90;;;;;;5122072;28;20409;-80
2022/12/11 13:36:17;;;;;;;12.57;8.70;;;-1.10;99.90;;;;;;5121239;28;20230;-80
2022/12/11 13:38:53;;;;;;;12.60;8.97;;;-1.30;99.90;;;;;;5122400;28;20840;-80
2022/12/11 13:41:19;;;;;;;11.37;8.33;;;-1.30;99.90;;;;;;5122557;28;20393;-79
2022/12/11 13:43:48;;;;;;;12.03;7.90;;;-1.50;99.90;;;;;;5120482;28;20413;-80
2022/12/11 13:46:18;;;;;;;12.80;9.07;;;-1.60;99.90;;;;;;5120324;28;20437;-79
2022/12/11 13:48:55;;;;;;;12.97;8.83;;;-1.50;99.90;;;;;;5120666;28;20404;-80
2022/12/11 13:51:24;;;;;;;13.67;8.97;;;-1.50;99.90;;;;;;5121179;28;20397;-79
2022/12/11 13:54:04;;;;;;;12.63;8.50;;;-1.50;99.90;;;;;;5121942;28;20416;-80
2022/12/11 13:56:30;;;;;;;13.67;8.37;;;-1.60;99.90;;;;;;5131028;27;21030;-80
2022/12/11 13:58:56;;;;;;;14.17;10.93;;;-1.60;99.90;;;;;;5135806;27;20432;-79
2022/12/11 14:01:30;;;;;;;15.97;11.00;;;-1.60;99.90;;;;;;5139177;27;20174;-81
2022/12/11 14:04:05;;;;;;;16.47;11.00;;;-1.80;99.90;;;;;;5142496;27;20166;-80
2022/12/11 14:06:33;;;;;;;17.43;12.00;;;-1.90;99.90;;;;;;5144022;27;20420;-80
2022/12/11 14:09:01;;;;;;;19.33;11.90;;;-1.80;99.90;;;;;;5142310;27;20429;-80
2022/12/11 14:11:36;;;;;;;25.93;13.50;;;-1.90;99.90;;;;;;5142053;27;20415;-80
2022/12/11 14:14:05;;;;;;;25.23;14.57;;;-2.10;99.90;;;;;;5142114;27;20434;-80
2022/12/11 14:16:31;;;;;;;17.47;11.63;;;-2.10;99.90;;;;;;5146050;27;20438;-80
2022/12/11 14:19:06;;;;;;;18.13;12.33;;;-2.10;99.90;;;;;;5154306;27;20426;-79
2022/12/11 14:21:32;;;;;;;17.37;12.00;;;-2.20;99.90;;;;;;5155881;27;20419;-80
2022/12/11 14:24:01;;;;;;;32.00;14.57;;;-2.30;99.90;;;;;;5144188;27;20467;-79
2022/12/11 14:26:32;;;;;;;25.53;14.43;;;-2.30;99.90;;;;;;5139349;27;20434;-81
2022/12/11 14:28:57;;;;;;;17.03;11.57;;;-2.40;99.90;;;;;;5135912;27;20421;-80
2022/12/11 14:31:29;;;;;;;16.23;10.30;;;-2.30;99.90;;;;;;5137622;27;20416;-81
2022/12/11 14:34:19;;;;;;;15.67;9.93;;;-2.50;99.90;;;;;;5139506;27;20163;-81
2022/12/11 14:36:48;;;;;;;18.13;10.03;;;-2.40;99.90;;;;;;5141081;27;20963;-81
2022/12/11 14:39:19;;;;;;;11.93;8.27;;;-2.50;99.90;;;;;;5142782;27;20414;-81
2022/12/11 14:41:50;;;;;;;14.97;9.87;;;-2.50;99.90;;;;;;5143192;27;20385;-81
2022/12/11 14:44:18;;;;;;;28.17;16.37;;;-2.50;99.90;;;;;;5140710;27;20893;-82
2022/12/11 14:46:56;;;;;;;33.17;18.90;;;-2.50;99.90;;;;;;5141144;27;20460;-84
2022/12/11 14:49:40;;;;;;;45.53;27.13;;;-2.60;99.90;;;;;;5140886;27;20407;-81
2022/12/11 14:52:20;;;;;;;29.67;19.23;;;-2.60;99.90;;;;;;5143267;27;20449;-82
2022/12/11 14:54:53;;;;;;;25.57;18.80;;;-2.60;99.90;;;;;;5145264;27;20458;-82
2022/12/11 14:57:24;;;;;;;19.07;11.60;;;-2.60;99.90;;;;;;5147310;27;20892;-81
2022/12/11 14:59:52;;;;;;;18.30;11.63;;;-2.60;99.90;;;;;;5145535;27;20498;-81
2022/12/11 15:02:21;;;;;;;63.60;35.50;;;-2.60;99.90;;;;;;5142431;27;20408;-81
2022/12/11 15:05:18;;;;;;;31.20;17.73;;;-2.60;99.90;;;;;;5139548;27;20421;-81
2022/12/11 15:08:00;;;;;;;18.70;12.40;;;-2.60;99.90;;;;;;5139632;27;20420;-81
2022/12/11 15:10:26;;;;;;;16.63;10.37;;;;;;;;;;5142143;27;20490;-82
2022/12/11 15:12:53;;;;;;;22.03;12.30;;;-2.70;99.90;;;;;;5142242;27;20416;-81
2022/12/11 15:15:19;;;;;;;19.43;11.43;;;;;;;;;;5140271;27;20499;-81
2022/12/11 15:17:48;;;;;;;16.93;10.23;;;-2.70;99.90;;;;;;5140169;27;20412;-81
2022/12/11 15:20:27;;;;;;;18.20;10.30;;;-2.80;99.90;;;;;;5140770;27;20473;-81
2022/12/11 15:22:54;;;;;;;14.27;9.73;;;-2.70;99.90;;;;;;5142373;27;20905;-82
2022/12/11 15:25:26;;;;;;;13.97;9.23;;;-2.90;99.90;;;;;;5142697;27;20442;-81
2022/12/11 15:27:58;;;;;;;17.20;11.27;;;-2.90;99.90;;;;;;5139802;27;20772;-81
2022/12/11 15:30:27;;;;;;;19.70;12.13;;;;;;;;;;5138888;27;20416;-81
2022/12/11 15:33:08;;;;;;;17.70;10.37;;;-3.20;99.90;;;;;;5138767;27;20412;-81
2022/12/11 15:35:34;;;;;;;24.90;15.00;;;;;;;;;;5138434;27;20980;-81
2022/12/11 15:38:00;;;;;;;28.07;16.03;;;-3.30;99.90;;;;;;5139448;27;20757;-81
2022/12/11 15:40:29;;;;;;;27.93;15.90;;;-3.10;99.90;;;;;;5142207;27;20401;-82
2022/12/11 15:42:56;;;;;;;24.67;14.80;;;-3.10;99.90;;;;;;5141204;27;20408;-82
2022/12/11 15:45:29;;;;;;;33.27;18.70;;;-3.00;99.90;;;;;;5142800;27;20443;-81
2022/12/11 15:47:55;;;;;;;31.33;16.90;;;-3.20;99.90;;;;;;5142953;27;20411;-81
2022/12/11 15:50:26;;;;;;;25.40;14.73;;;-3.10;99.90;;;;;;5143830;27;20774;-80
2022/12/11 15:52:54;;;;;;;20.63;12.00;;;-3.10;99.90;;;;;;5144733;27;20411;-80
2022/12/11 15:55:21;;;;;;;29.13;16.80;;;-3.10;99.90;;;;;;5141684;28;20864;-80
2022/12/11 15:57:53;;;;;;;28.87;17.57;;;-3.10;99.90;;;;;;5142728;28;20434;-80
2022/12/11 16:00:21;;;;;;;28.53;18.13;;;-3.00;99.90;;;;;;5141749;28;20397;-81
2022/12/11 16:02:47;;;;;;;22.30;15.30;;;;;;;;;;5142386;28;20504;-80
2022/12/11 16:05:14;;;;;;;13.63;8.93;;;-3.10;99.90;;;;;;5136174;28;20425;-80
2022/12/11 16:07:40;;;;;;;19.23;10.13;;;;;;;;;;5146762;28;20802;-80
2022/12/11 16:10:13;;;;;;;39.27;21.77;;;-3.20;99.90;;;;;;5136701;28;20416;-80
2022/12/11 16:12:39;;;;;;;21.90;10.67;;;;;;;;;;5137629;28;20412;-80
2022/12/11 16:15:06;;;;;;;17.93;10.00;;;;;;;;;;5138819;27;20472;-81
2022/12/11 16:17:32;;;;;;;32.87;18.40;;;;;;;;;;5142854;27;20404;-81
2022/12/11 16:19:58;;;;;;;68.17;36.10;;;-3.10;99.90;;;;;;5142420;27;20551;-81
2022/12/11 16:22:24;;;;;;;25.83;15.80;;;;;;;;;;5144487;27;20877;-81
2022/12/11 16:24:54;;;;;;;29.53;16.63;;;-3.00;99.90;;;;;;5143472;27;20415;-80
2022/12/11 16:27:20;;;;;;;47.97;28.30;;;;;;;;;;5142250;27;20424;-80
2022/12/11 16:29:46;;;;;;;17.03;10.00;;;;;;;;;;5143949;27;20408;-80
2022/12/11 16:32:12;;;;;;;16.00;10.00;;;;;;;;;;5143402;27;20465;-82
2022/12/11 16:34:38;;;;;;;19.57;11.80;;;;;;;;;;5142733;27;20542;-81
2022/12/11 16:37:06;;;;;;;15.77;9.40;;;-3.20;99.90;;;;;;5143235;27;20416;-81
2022/12/11 16:39:32;;;;;;;16.37;9.97;;;;;;;;;;5128969;27;20477;-81
2022/12/11 16:41:58;;;;;;;24.23;13.37;;;;;;;;;;5122958;28;20762;-80
2022/12/11 16:44:25;;;;;;;14.30;8.57;;;-3.20;99.90;;;;;;5123343;28;20435;-82
2022/12/11 16:46:52;;;;;;;15.07;8.93;;;;;;;;;;5121893;28;20482;-81
2022/12/11 16:49:18;;;;;;;19.77;10.57;;;;;;;;;;5104103;28;20424;-82
2022/12/11 16:51:44;;;;;;;19.87;9.27;;;;;;;;;;5120768;28;20413;-82
2022/12/11 16:54:10;;;;;;;22.10;11.00;;;;;;;;;;5120730;28;20474;-81
2022/12/11 16:56:37;;;;;;;20.53;10.80;;;;;;;;;;5123150;28;20417;-82
2022/12/11 16:59:03;;;;;;;17.07;8.87;;;-3.10;99.90;;;;;;5121716;28;20475;-82
2022/12/11 17:01:29;;;;;;;31.07;16.30;;;;;;;;;;5121877;28;20407;-82
2022/12/11 17:03:55;;;;;;;16.67;9.60;;;;;;;;;;5124211;28;20416;-82
2022/12/11 17:06:21;;;;;;;54.77;24.60;;;;;;;;;;5123254;28;20432;-82
2022/12/11 17:08:48;;;;;;;22.13;11.80;;;;;;;;;;5124578;28;20398;-82
2022/12/11 17:11:16;;;;;;;26.73;11.50;;;-3.10;99.90;;;;;;5123064;28;20420;-82
2022/12/11 17:13:42;;;;;;;14.83;7.63;;;;;;;;;;5124309;28;20435;-82
2022/12/11 17:16:14;;;;;;;12.13;7.03;;;-3.20;99.90;;;;;;5123307;28;20507;-83
2022/12/11 17:18:40;;;;;;;17.63;9.23;;;;;;;;;;5124046;28;20413;-82
2022/12/11 17:21:21;;;;;;;14.60;8.37;;;-3.30;99.90;;;;;;5124917;28;20404;-82
2022/12/11 17:23:47;;;;;;;14.03;7.60;;;-3.20;99.90;;;;;;5123814;28;20498;-83
2022/12/11 17:26:14;;;;;;;10.57;7.33;;;;;;;;;;5125390;28;20429;-83
2022/12/11 17:28:40;;;;;;;24.50;12.03;;;;;;;;;;5125792;28;20417;-83
2022/12/11 17:31:08;;;;;;;35.13;14.33;;;-3.30;99.90;;;;;;5127508;28;20510;-83
2022/12/11 17:33:34;;;;;;;25.90;12.77;;;;;;;;;;5126832;28;20420;-83
2022/12/11 17:36:04;;;;;;;11.40;7.83;;;-3.30;99.90;;;;;;5128196;28;20462;-83
2022/12/11 17:38:30;;;;;;;20.20;7.93;;;;;;;;;;5128237;28;20443;-83
2022/12/11 17:40:57;;;;;;;16.20;8.17;;;;;;;;;;5135668;28;20485;-82
2022/12/11 17:43:23;;;;;;;15.30;7.57;;;;;;;;;;5126253;28;20417;-83
2022/12/11 17:45:51;;;;;;;9.10;5.93;;;-3.50;99.90;;;;;;5122067;28;20783;-83
2022/12/11 17:48:18;;;;;;;11.77;7.17;;;-3.60;99.90;;;;;;5122634;28;20904;-83
2022/12/11 17:50:45;;;;;;;24.57;11.50;;;-3.60;99.90;;;;;;5122491;28;20405;-83
2022/12/11 17:53:13;;;;;;;18.20;10.53;;;-3.60;99.90;;;;;;5121123;28;20429;-83
2022/12/11 17:55:43;;;;;;;18.80;8.63;;;-3.60;99.90;;;;;;5120926;28;20478;-83
2022/12/11 17:58:10;;;;;;;17.07;9.43;;;-3.60;99.90;;;;;;5121735;28;20777;-82
2022/12/11 18:00:41;;;;;;;11.90;7.53;;;-3.60;99.90;;;;;;5122700;28;20405;-83
2022/12/11 18:03:08;;;;;;;10.73;6.80;;;;;;;;;;5102845;28;20940;-83
2022/12/11 18:05:34;;;;;;;11.60;7.93;;;;;;;;;;5120949;28;20489;-83
2022/12/11 18:08:00;;;;;;;13.23;8.17;;;;;;;;;;5120989;28;20448;-82
2022/12/11 18:10:26;;;;;;;17.43;9.47;;;;;;;;;;5123408;28;20410;-83
2022/12/11 18:12:52;;;;;;;17.57;10.27;;;;;;;;;;5121140;28;20412;-83
2022/12/11 18:15:18;;;;;;;18.70;12.00;;;;;;;;;;5119649;28;20486;-83
